createdAt,value
2022-09-14T00:01:44.123Z,6.03
2022-09-14T00:03:46.837Z,5.90
2022-09-14T00:05:49.472Z,5.63
2022-09-14T00:07:52.422Z,5.27
2022-09-14T00:09:56.555Z,5.20
2022-09-14T00:11:59.319Z,5.50
2022-09-14T00:14:02.626Z,5.87
2022-09-14T00:16:06.150Z,6.13
2022-09-14T00:18:10.600Z,5.47
2022-09-14T00:20:13.519Z,5.73
2022-09-14T00:22:16.060Z,5.77
2022-09-14T00:24:19.134Z,5.10
2022-09-14T00:26:23.567Z,5.63
2022-09-14T00:28:26.121Z,6.00
2022-09-14T00:30:29.136Z,5.87
2022-09-14T00:32:31.746Z,6.23
2022-09-14T00:34:34.765Z,6.30
2022-09-14T00:36:39.184Z,5.30
2022-09-14T00:38:42.630Z,6.40
2022-09-14T00:40:45.145Z,6.33
2022-09-14T00:42:49.096Z,5.50
2022-09-14T00:45:00.393Z,5.57
2022-09-14T00:47:02.974Z,5.13
2022-09-14T00:49:07.458Z,5.57
2022-09-14T00:51:10.076Z,5.80
2022-09-14T00:53:13.045Z,5.70
2022-09-14T00:55:16.008Z,5.37
2022-09-14T00:57:18.759Z,5.67
2022-09-14T00:59:24.229Z,6.07
2022-09-14T01:01:27.152Z,5.33
2022-09-14T01:03:29.901Z,4.97
2022-09-14T01:05:37.612Z,5.87
2022-09-14T01:07:50.175Z,6.03
2022-09-14T01:09:56.237Z,5.20
2022-09-14T01:12:05.749Z,5.73
2022-09-14T01:14:11.093Z,6.00
2022-09-14T01:16:20.584Z,5.80
2022-09-14T01:18:25.301Z,5.27
2022-09-14T01:20:29.050Z,5.73
2022-09-14T01:22:36.029Z,4.83
2022-09-14T01:24:43.669Z,5.23
2022-09-14T01:27:10.730Z,5.53
2022-09-14T01:29:14.554Z,5.80
2022-09-14T01:31:18.391Z,5.33
2022-09-14T01:33:23.152Z,5.50
2022-09-14T01:35:27.858Z,5.57
2022-09-14T01:37:36.346Z,5.20
2022-09-14T01:39:38.904Z,5.83
2022-09-14T01:41:42.247Z,5.23
2022-09-14T01:43:47.849Z,5.77
2022-09-14T01:45:51.845Z,6.17
2022-09-14T01:47:55.692Z,5.60
2022-09-14T01:50:05.915Z,5.57
2022-09-14T01:52:10.130Z,5.10
2022-09-14T01:54:14.749Z,5.97
2022-09-14T01:56:20.307Z,5.40
2022-09-14T01:58:25.929Z,6.00
2022-09-14T02:00:29.792Z,5.83
2022-09-14T02:02:34.178Z,5.17
2022-09-14T02:04:39.112Z,5.13
2022-09-14T02:06:43.042Z,5.00
2022-09-14T02:08:45.621Z,5.00
2022-09-14T02:10:48.296Z,5.83
2022-09-14T02:12:51.395Z,5.13
2022-09-14T02:14:54.548Z,5.00
2022-09-14T02:16:58.428Z,4.60
2022-09-14T02:19:01.846Z,5.20
2022-09-14T02:21:07.033Z,4.90
2022-09-14T02:23:09.640Z,4.70
2022-09-14T02:25:12.264Z,5.00
2022-09-14T02:27:14.869Z,4.77
2022-09-14T02:29:17.838Z,4.90
2022-09-14T02:31:27.940Z,5.23
2022-09-14T02:33:34.993Z,4.43
2022-09-14T02:35:39.511Z,4.30
2022-09-14T02:37:47.629Z,4.80
2022-09-14T02:39:54.127Z,5.47
2022-09-14T02:41:59.847Z,5.33
2022-09-14T02:44:06.033Z,4.83
2022-09-14T02:46:13.381Z,4.53
2022-09-14T02:48:20.725Z,4.90
2022-09-14T02:50:26.757Z,4.33
2022-09-14T02:52:33.322Z,4.50
2022-09-14T02:54:37.699Z,4.67
2022-09-14T02:56:40.278Z,4.33
2022-09-14T02:58:44.281Z,4.60
2022-09-14T03:00:48.224Z,5.40
2022-09-14T03:02:51.729Z,4.40
2022-09-14T03:04:55.183Z,4.30
2022-09-14T03:06:59.110Z,4.43
2022-09-14T03:09:01.762Z,4.60
2022-09-14T03:11:04.693Z,4.20
2022-09-14T03:13:07.269Z,4.70
2022-09-14T03:15:10.612Z,4.43
2022-09-14T03:17:13.244Z,4.70
2022-09-14T03:19:16.277Z,4.60
2022-09-14T03:21:19.565Z,4.07
2022-09-14T03:23:23.579Z,4.70
2022-09-14T03:25:26.160Z,4.60
2022-09-14T03:27:28.826Z,4.53
2022-09-14T03:29:31.411Z,4.10
2022-09-14T03:31:34.373Z,4.40
2022-09-14T03:33:37.524Z,4.03
2022-09-14T03:35:40.120Z,4.50
2022-09-14T03:37:43.153Z,4.70
2022-09-14T03:39:47.063Z,4.60
2022-09-14T03:41:50.159Z,4.40
2022-09-14T03:43:52.727Z,4.00
2022-09-14T03:45:55.363Z,4.20
2022-09-14T03:47:57.945Z,4.33
2022-09-14T03:50:00.842Z,3.83
2022-09-14T03:52:03.957Z,4.10
2022-09-14T03:54:07.022Z,4.03
2022-09-14T03:56:11.603Z,4.33
2022-09-14T03:58:14.599Z,4.40
2022-09-14T04:00:18.581Z,4.40
2022-09-14T04:02:21.297Z,4.87
2022-09-14T04:04:23.901Z,4.70
2022-09-14T04:06:26.896Z,3.63
2022-09-14T04:08:29.482Z,4.50
2022-09-14T04:10:32.054Z,5.73
2022-09-14T04:12:36.677Z,4.00
2022-09-14T04:14:39.719Z,4.80
2022-09-14T04:16:43.131Z,4.43
2022-09-14T04:18:45.898Z,4.30
2022-09-14T04:20:55.644Z,4.60
2022-09-14T04:22:58.426Z,4.30
2022-09-14T04:25:00.973Z,4.57
2022-09-14T04:27:03.543Z,4.43
2022-09-14T04:29:09.006Z,5.43
2022-09-14T04:31:12.256Z,4.30
2022-09-14T04:33:14.833Z,4.77
2022-09-14T04:35:17.476Z,4.00
2022-09-14T04:37:20.417Z,4.30
2022-09-14T04:39:22.997Z,3.90
2022-09-14T04:41:25.812Z,4.13
2022-09-14T04:43:28.359Z,3.83
2022-09-14T04:45:32.635Z,3.60
2022-09-14T04:47:35.178Z,4.80
2022-09-14T04:49:37.717Z,4.30
2022-09-14T04:51:40.273Z,3.93
2022-09-14T04:53:43.267Z,4.50
2022-09-14T04:55:46.156Z,4.50
2022-09-14T04:57:49.397Z,4.03
2022-09-14T04:59:52.138Z,4.27
2022-09-14T05:01:56.347Z,3.83
2022-09-14T05:03:59.016Z,4.47
2022-09-14T05:06:03.022Z,4.20
2022-09-14T05:08:05.620Z,4.20
2022-09-14T05:10:09.279Z,3.87
2022-09-14T05:12:11.811Z,4.20
2022-09-14T05:14:14.490Z,4.50
2022-09-14T05:16:18.496Z,3.77
2022-09-14T05:18:22.839Z,4.10
2022-09-14T05:20:25.422Z,3.90
2022-09-14T05:22:27.948Z,4.00
2022-09-14T05:24:30.488Z,4.77
2022-09-14T05:26:33.554Z,3.93
2022-09-14T05:28:36.319Z,3.80
2022-09-14T05:30:40.752Z,4.30
2022-09-14T05:32:43.337Z,3.93
2022-09-14T05:34:47.599Z,4.10
2022-09-14T05:36:50.336Z,4.20
2022-09-14T05:38:52.994Z,4.50
2022-09-14T05:40:58.174Z,3.77
2022-09-14T05:43:00.741Z,4.00
2022-09-14T05:45:03.327Z,3.60
2022-09-14T05:47:06.633Z,4.20
2022-09-14T05:49:12.033Z,4.53
2022-09-14T05:51:17.277Z,4.20
2022-09-14T05:53:19.842Z,4.00
2022-09-14T05:55:22.381Z,4.47
2022-09-14T05:57:25.423Z,4.27
2022-09-14T05:59:31.635Z,4.20
2022-09-14T06:01:34.333Z,4.03
2022-09-14T06:03:36.963Z,4.10
2022-09-14T06:05:39.564Z,4.60
2022-09-14T06:07:43.543Z,4.77
2022-09-14T06:09:46.202Z,5.27
2022-09-14T06:11:49.101Z,4.17
2022-09-14T06:13:51.981Z,5.00
2022-09-14T06:15:54.644Z,4.63
2022-09-14T06:17:57.274Z,4.57
2022-09-14T06:20:04.378Z,4.60
2022-09-14T06:22:07.514Z,5.07
2022-09-14T06:24:13.401Z,5.10
2022-09-14T06:26:16.158Z,4.87
2022-09-14T06:28:19.098Z,5.07
2022-09-14T06:30:21.695Z,4.47
2022-09-14T06:32:24.339Z,4.90
2022-09-14T06:34:26.915Z,5.63
2022-09-14T06:36:29.880Z,4.60
2022-09-14T06:38:32.443Z,5.10
2022-09-14T06:40:36.401Z,4.73
2022-09-14T06:42:38.960Z,7.00
2022-09-14T06:44:42.971Z,4.40
2022-09-14T06:46:47.651Z,5.60
2022-09-14T06:48:53.824Z,4.67
2022-09-14T06:50:56.478Z,4.70
2022-09-14T06:52:59.425Z,4.90
2022-09-14T06:55:02.026Z,5.47
2022-09-14T06:57:06.028Z,6.13
2022-09-14T06:59:10.126Z,5.70
2022-09-14T07:01:15.308Z,5.63
2022-09-14T07:03:17.923Z,5.10
2022-09-14T07:05:22.241Z,4.80
2022-09-14T07:07:25.135Z,7.00
2022-09-14T07:09:27.699Z,5.67
2022-09-14T07:11:30.397Z,5.50
2022-09-14T07:13:34.257Z,6.10
2022-09-14T07:15:37.271Z,4.97
2022-09-14T07:17:39.805Z,5.97
2022-09-14T07:19:43.258Z,5.90
2022-09-14T07:21:45.811Z,5.77
2022-09-14T07:23:49.019Z,6.53
2022-09-14T07:26:00.747Z,6.83
2022-09-14T07:28:03.604Z,6.30
2022-09-14T07:30:08.827Z,7.10
2022-09-14T07:32:11.413Z,6.80
2022-09-14T07:34:14.129Z,6.50
2022-09-14T07:36:16.692Z,6.27
2022-09-14T07:38:35.588Z,5.90
2022-09-14T07:40:42.154Z,6.53
2022-09-14T07:42:44.713Z,6.80
2022-09-14T07:44:47.241Z,7.97
2022-09-14T07:46:51.501Z,7.20
2022-09-14T07:48:55.557Z,6.97
2022-09-14T07:51:01.762Z,6.87
2022-09-14T07:53:04.299Z,6.83
2022-09-14T07:55:08.401Z,6.97
2022-09-14T07:57:11.163Z,8.13
2022-09-14T08:01:37.209Z,7.97
2022-09-14T08:03:43.625Z,7.47
2022-09-14T08:05:46.194Z,7.53
2022-09-14T08:07:48.780Z,7.63
2022-09-14T08:09:51.345Z,6.60
2022-09-14T08:11:54.284Z,7.10
2022-09-14T08:13:57.808Z,7.97
2022-09-14T08:16:01.919Z,8.53
2022-09-14T08:18:04.685Z,8.03
2022-09-14T08:20:09.585Z,8.60
2022-09-14T08:22:12.123Z,7.50
2022-09-14T08:24:15.806Z,7.80
2022-09-14T08:26:19.343Z,8.70
2022-09-14T08:28:22.176Z,9.57
2022-09-14T08:30:24.781Z,8.80
2022-09-14T08:32:27.364Z,9.20
2022-09-14T08:34:29.976Z,10.60
2022-09-14T08:36:35.432Z,9.33
2022-09-14T08:38:38.193Z,9.63
2022-09-14T08:40:44.972Z,8.80
2022-09-14T08:42:48.131Z,9.40
2022-09-14T08:44:52.892Z,9.63
2022-09-14T08:46:59.566Z,9.50
2022-09-14T08:49:02.659Z,9.40
2022-09-14T08:51:06.026Z,8.80
2022-09-14T08:53:09.942Z,9.37
2022-09-14T08:55:20.391Z,9.50
2022-09-14T08:57:27.656Z,8.60
2022-09-14T08:59:37.210Z,9.43
2022-09-14T09:01:43.169Z,8.83
2022-09-14T09:04:01.429Z,8.27
2022-09-14T09:06:11.846Z,9.10
2022-09-14T09:08:23.607Z,8.40
2022-09-14T09:10:26.308Z,9.07
2022-09-14T09:12:34.919Z,9.40
2022-09-14T09:14:40.100Z,8.77
2022-09-14T09:16:42.758Z,7.80
2022-09-14T09:18:48.009Z,8.53
2022-09-14T09:20:52.905Z,8.03
2022-09-14T09:23:00.097Z,8.23
2022-09-14T09:25:04.495Z,8.00
2022-09-14T09:27:11.412Z,8.47
2022-09-14T09:29:14.305Z,8.83
2022-09-14T09:31:17.393Z,8.80
2022-09-14T09:33:22.902Z,8.50
2022-09-14T09:35:26.872Z,10.80
2022-09-14T09:37:30.698Z,8.40
2022-09-14T09:39:33.249Z,7.40
2022-09-14T09:41:42.449Z,9.03
2022-09-14T09:43:58.670Z,8.07
2022-09-14T09:46:02.845Z,7.50
2022-09-14T09:48:10.021Z,8.03
2022-09-14T09:50:18.264Z,7.73
2022-09-14T09:52:20.840Z,7.80
2022-09-14T09:54:29.726Z,7.17
2022-09-14T09:56:33.418Z,8.00
2022-09-14T09:58:39.811Z,8.23
2022-09-14T10:00:42.879Z,12.80
2022-09-14T10:02:45.922Z,6.83
2022-09-14T10:04:57.547Z,8.30
2022-09-14T10:07:00.254Z,7.57
2022-09-14T10:09:02.824Z,13.33
2022-09-14T10:11:06.000Z,7.63
2022-09-14T10:13:26.731Z,6.83
2022-09-14T10:15:31.471Z,6.80
2022-09-14T10:17:34.047Z,7.40
2022-09-14T10:19:36.892Z,6.67
2022-09-14T10:21:39.584Z,7.53
2022-09-14T10:23:43.105Z,8.10
2022-09-14T10:25:45.821Z,8.37
2022-09-14T10:27:49.491Z,6.63
2022-09-14T10:29:52.092Z,7.70
2022-09-14T10:31:57.379Z,6.90
2022-09-14T10:34:01.057Z,7.40
2022-09-14T10:36:07.732Z,6.23
2022-09-14T10:38:19.952Z,6.90
2022-09-14T10:40:27.584Z,6.53
2022-09-14T10:42:33.515Z,7.13
2022-09-14T10:44:44.976Z,6.23
2022-09-14T10:46:51.104Z,8.27
2022-09-14T10:49:10.117Z,8.80
2022-09-14T10:51:25.029Z,6.83
2022-09-14T10:53:34.840Z,6.20
2022-09-14T10:55:43.687Z,6.30
2022-09-14T10:57:49.396Z,6.90
2022-09-14T10:59:54.424Z,7.07
2022-09-14T11:02:10.651Z,7.17
2022-09-14T11:04:22.040Z,7.37
2022-09-14T11:06:32.284Z,6.57
2022-09-14T11:08:37.650Z,6.30
2022-09-14T11:10:45.676Z,6.63
2022-09-14T11:12:53.596Z,6.63
2022-09-14T11:15:02.769Z,6.60
2022-09-14T11:17:13.722Z,10.33
2022-09-14T11:19:21.822Z,7.37
2022-09-14T11:21:28.413Z,7.60
2022-09-14T11:23:41.883Z,6.50
2022-09-14T11:25:46.002Z,6.90
2022-09-14T11:27:50.848Z,5.97
2022-09-14T11:29:54.908Z,5.90
2022-09-14T11:32:19.679Z,7.27
2022-09-14T11:34:26.909Z,5.27
2022-09-14T11:36:30.775Z,7.33
2022-09-14T11:38:36.805Z,6.37
2022-09-14T11:40:42.892Z,5.43
2022-09-14T11:43:01.654Z,5.27
2022-09-14T11:45:06.300Z,5.80
2022-09-14T11:47:10.797Z,6.20
2022-09-14T11:49:15.141Z,5.83
2022-09-14T11:51:22.487Z,5.40
2022-09-14T11:53:25.720Z,6.40
2022-09-14T11:55:28.760Z,6.27
2022-09-14T11:57:32.244Z,5.80
2022-09-14T11:59:37.085Z,5.87
2022-09-14T12:01:40.095Z,5.10
2022-09-14T12:04:02.055Z,6.03
2022-09-14T12:06:48.899Z,5.73
2022-09-14T12:09:00.733Z,5.60
2022-09-14T12:11:06.174Z,5.13
2022-09-14T12:13:20.024Z,5.53
2022-09-14T12:15:34.478Z,5.63
2022-09-14T12:17:40.912Z,6.37
2022-09-14T12:19:44.356Z,5.50
2022-09-14T12:21:46.994Z,6.07
2022-09-14T12:23:53.101Z,6.40
2022-09-14T12:26:01.197Z,5.53
2022-09-14T12:28:03.934Z,5.90
2022-09-14T12:30:40.381Z,6.83
2022-09-14T12:32:43.832Z,6.90
2022-09-14T12:35:07.366Z,6.17
2022-09-14T12:37:32.339Z,7.23
2022-09-14T12:39:36.469Z,5.67
2022-09-14T12:41:58.928Z,6.63
2022-09-14T12:44:01.789Z,6.00
2022-09-14T12:46:05.351Z,6.10
2022-09-14T12:48:09.121Z,7.90
2022-09-14T12:50:16.265Z,8.43
2022-09-14T12:52:33.958Z,5.27
2022-09-14T12:54:49.225Z,5.60
2022-09-14T12:57:01.051Z,6.47
2022-09-14T12:59:06.176Z,7.87
2022-09-14T13:01:21.034Z,6.20
2022-09-14T13:03:38.662Z,5.73
2022-09-14T13:05:44.787Z,6.57
2022-09-14T13:07:48.046Z,5.70
2022-09-14T13:09:54.178Z,6.27
2022-09-14T13:12:01.363Z,6.03
2022-09-14T13:14:04.570Z,6.43
2022-09-14T13:16:08.381Z,7.60
2022-09-14T13:18:28.849Z,7.63
2022-09-14T13:20:32.346Z,7.10
2022-09-14T13:22:39.401Z,7.07
2022-09-14T13:24:45.833Z,6.40
2022-09-14T13:26:53.524Z,7.40
2022-09-14T13:28:57.642Z,6.47
2022-09-14T13:31:02.608Z,7.67
2022-09-14T13:33:11.217Z,6.40
2022-09-14T13:35:17.801Z,6.70
2022-09-14T13:37:20.947Z,6.37
2022-09-14T13:39:27.590Z,7.47
2022-09-14T13:41:30.626Z,6.60
2022-09-14T13:43:34.498Z,6.53
2022-09-14T13:45:38.213Z,7.10
2022-09-14T13:47:41.680Z,6.57
2022-09-14T13:49:48.741Z,6.53
2022-09-14T13:51:54.855Z,8.03
2022-09-14T13:53:58.508Z,8.33
2022-09-14T13:56:03.476Z,7.67
2022-09-14T13:58:08.368Z,8.10
2022-09-14T14:00:19.987Z,7.77
2022-09-14T14:02:23.500Z,7.60
2022-09-14T14:04:29.194Z,7.77
2022-09-14T14:06:35.507Z,6.97
2022-09-14T14:08:38.719Z,8.30
2022-09-14T14:10:46.336Z,7.23
2022-09-14T14:12:50.931Z,8.93
2022-09-14T14:14:56.243Z,7.03
2022-09-14T14:17:19.938Z,7.57
2022-09-14T14:19:28.209Z,7.37
2022-09-14T14:21:32.589Z,7.23
2022-09-14T14:23:43.310Z,11.13
2022-09-14T14:26:08.063Z,7.80
2022-09-14T14:28:22.694Z,7.50
2022-09-14T14:30:32.574Z,6.83
2022-09-14T14:32:37.529Z,7.33
2022-09-14T14:34:40.115Z,7.40
2022-09-14T14:36:42.713Z,7.00
2022-09-14T14:38:47.516Z,6.37
2022-09-14T14:40:51.236Z,7.30
2022-09-14T14:42:54.249Z,8.10
2022-09-14T14:44:56.924Z,7.10
2022-09-14T14:46:59.838Z,7.03
2022-09-14T14:49:03.721Z,7.10
2022-09-14T14:51:06.717Z,7.40
2022-09-14T14:53:10.046Z,5.90
2022-09-14T14:55:13.149Z,6.23
2022-09-14T14:57:21.915Z,7.20
2022-09-14T14:59:29.096Z,9.87
2022-09-14T15:01:31.822Z,6.10
2022-09-14T15:03:34.893Z,6.83
2022-09-14T15:05:42.529Z,6.53
2022-09-14T15:07:45.177Z,6.40
2022-09-14T15:09:47.790Z,6.73
2022-09-14T15:11:59.561Z,10.73
2022-09-14T15:14:02.113Z,6.20
2022-09-14T15:16:07.897Z,8.07
2022-09-14T15:18:10.980Z,6.70
2022-09-14T15:20:14.328Z,6.43
2022-09-14T15:22:18.141Z,7.17
2022-09-14T15:24:21.001Z,6.83
2022-09-14T15:26:24.466Z,7.70
2022-09-14T15:28:27.043Z,6.70
2022-09-14T15:30:32.484Z,6.20
2022-09-14T15:32:35.184Z,6.47
2022-09-14T15:34:38.111Z,6.47
2022-09-14T15:36:42.253Z,7.17
2022-09-14T15:38:46.162Z,7.70
2022-09-14T15:40:48.747Z,5.77
2022-09-14T15:42:51.772Z,9.00
2022-09-14T15:44:59.525Z,7.57
2022-09-14T15:47:02.229Z,6.60
2022-09-14T15:49:08.727Z,9.47
2022-09-14T15:51:11.632Z,7.40
2022-09-14T15:53:14.773Z,10.13
2022-09-14T15:55:18.819Z,7.60
2022-09-14T15:57:21.741Z,6.47
2022-09-14T15:59:24.369Z,6.10
2022-09-14T16:01:27.179Z,6.00
2022-09-14T16:03:31.232Z,6.00
2022-09-14T16:05:34.488Z,5.90
2022-09-14T16:07:37.017Z,6.20
2022-09-14T16:09:42.406Z,6.70
2022-09-14T16:11:46.218Z,5.63
2022-09-14T16:13:49.924Z,5.23
2022-09-14T16:15:56.688Z,6.40
2022-09-14T16:18:01.417Z,6.63
2022-09-14T16:20:04.217Z,6.80
2022-09-14T16:22:09.951Z,5.87
2022-09-14T16:24:14.131Z,5.47
2022-09-14T16:26:17.651Z,5.73
2022-09-14T16:28:21.496Z,6.47
2022-09-14T16:30:24.458Z,9.53
2022-09-14T16:32:27.469Z,14.80
2022-09-14T16:34:30.408Z,41.07
2022-09-14T16:36:33.804Z,69.97
2022-09-14T16:38:37.033Z,59.80
2022-09-14T16:40:42.780Z,51.47
2022-09-14T16:42:46.886Z,58.60
2022-09-14T16:44:51.187Z,52.27
2022-09-14T16:46:54.132Z,54.90
2022-09-14T16:48:58.489Z,57.60
2022-09-14T16:51:02.739Z,59.30
2022-09-14T16:53:05.761Z,58.70
2022-09-14T16:55:08.941Z,53.50
2022-09-14T16:57:11.528Z,62.80
2022-09-14T16:59:14.205Z,62.70
2022-09-14T17:01:19.127Z,45.13
2022-09-14T17:03:21.737Z,50.37
2022-09-14T17:05:24.300Z,50.73
2022-09-14T17:07:29.635Z,46.90
2022-09-14T17:09:32.905Z,43.67
2022-09-14T17:11:36.614Z,45.17
2022-09-14T17:13:39.244Z,42.57
2022-09-14T17:15:41.785Z,44.77
2022-09-14T17:17:45.930Z,42.57
2022-09-14T17:19:48.471Z,44.67
2022-09-14T17:21:51.156Z,42.57
2022-09-14T17:23:54.286Z,38.70
2022-09-14T17:25:57.113Z,35.87
2022-09-14T17:27:59.717Z,38.50
2022-09-14T17:30:02.259Z,35.17
2022-09-14T17:32:04.957Z,37.73
2022-09-14T17:34:09.778Z,33.23
2022-09-14T17:36:12.682Z,38.20
2022-09-14T17:38:15.324Z,30.20
2022-09-14T17:40:18.040Z,32.20
2022-09-14T17:42:23.647Z,40.57
2022-09-14T17:44:28.001Z,34.03
2022-09-14T17:46:31.194Z,32.20
2022-09-14T17:48:34.467Z,35.17
2022-09-14T17:50:42.550Z,32.50
2022-09-14T17:52:50.818Z,33.43
2022-09-14T17:55:08.380Z,29.13
2022-09-14T17:57:14.096Z,30.50
2022-09-14T17:59:20.281Z,33.30
2022-09-14T18:01:23.612Z,29.00
2022-09-14T18:03:26.451Z,27.87
2022-09-14T18:05:29.471Z,26.30
2022-09-14T18:07:34.183Z,34.73
2022-09-14T18:09:37.475Z,28.70
2022-09-14T18:11:40.121Z,32.90
2022-09-14T18:13:43.786Z,30.27
2022-09-14T18:15:46.665Z,27.03
2022-09-14T18:17:50.456Z,24.30
2022-09-14T18:19:58.449Z,26.67
2022-09-14T18:22:01.044Z,32.50
2022-09-14T18:24:05.228Z,28.23
2022-09-14T18:26:10.973Z,30.70
2022-09-14T18:28:13.837Z,28.90
2022-09-14T18:30:16.460Z,27.70
2022-09-14T18:32:19.163Z,28.00
2022-09-14T18:34:21.904Z,27.37
2022-09-14T18:36:28.129Z,25.20
2022-09-14T18:38:31.556Z,28.23
2022-09-14T18:40:39.157Z,29.63
2022-09-14T18:42:42.130Z,26.87
2022-09-14T18:44:53.831Z,29.70
2022-09-14T18:46:56.498Z,24.47
2022-09-14T18:49:00.582Z,24.37
2022-09-14T18:51:03.829Z,25.00
2022-09-14T18:53:06.417Z,28.83
2022-09-14T18:55:09.742Z,23.37
2022-09-14T18:57:14.528Z,23.50
2022-09-14T18:59:17.075Z,23.80
2022-09-14T19:01:21.917Z,22.60
2022-09-14T19:03:24.872Z,23.13
2022-09-14T19:05:29.854Z,21.67
2022-09-14T19:07:32.457Z,23.90
2022-09-14T19:09:35.478Z,24.13
2022-09-14T19:11:38.404Z,26.07
2022-09-14T19:13:42.378Z,21.73
2022-09-14T19:15:45.115Z,21.63
2022-09-14T19:17:48.077Z,20.43
2022-09-14T19:19:50.769Z,25.90
2022-09-14T19:21:53.436Z,22.33
2022-09-14T19:24:00.100Z,22.40
2022-09-14T19:26:04.905Z,23.60
2022-09-14T19:28:07.492Z,20.83
2022-09-14T19:30:12.363Z,20.87
2022-09-14T19:32:14.970Z,22.50
2022-09-14T19:34:18.287Z,21.53
2022-09-14T19:36:22.098Z,19.20
2022-09-14T19:38:24.667Z,22.27
2022-09-14T19:40:27.626Z,25.57
2022-09-14T19:42:30.578Z,21.10
2022-09-14T19:44:33.133Z,21.30
2022-09-14T19:46:39.400Z,19.80
2022-09-14T19:48:51.241Z,19.20
2022-09-14T19:50:54.207Z,23.30
2022-09-14T19:52:59.241Z,18.97
2022-09-14T19:55:04.374Z,21.17
2022-09-14T19:57:07.174Z,23.93
2022-09-14T19:59:10.378Z,19.00
2022-09-14T20:01:13.020Z,17.97
2022-09-14T20:03:17.852Z,22.00
2022-09-14T20:05:20.487Z,19.17
2022-09-14T20:07:23.567Z,18.10
2022-09-14T20:09:26.255Z,22.07
2022-09-14T20:11:30.160Z,21.03
2022-09-14T20:13:42.482Z,19.50
2022-09-14T20:15:45.180Z,18.13
2022-09-14T20:17:48.163Z,18.80
2022-09-14T20:19:52.399Z,17.70
2022-09-14T20:21:55.350Z,18.77
2022-09-14T20:24:15.260Z,20.80
2022-09-14T20:26:19.151Z,20.67
2022-09-14T20:28:26.138Z,17.87
2022-09-14T20:30:30.574Z,19.90
2022-09-14T20:32:34.407Z,19.77
2022-09-14T20:34:37.460Z,19.30
2022-09-14T20:36:41.365Z,19.47
2022-09-14T20:38:49.654Z,21.63
2022-09-14T20:40:58.627Z,18.40
2022-09-14T20:43:02.027Z,21.20
2022-09-14T20:45:05.100Z,18.70
2022-09-14T20:47:07.849Z,19.90
2022-09-14T20:49:11.769Z,20.00
2022-09-14T20:51:19.911Z,19.33
2022-09-14T20:53:26.002Z,22.00
2022-09-14T20:55:30.103Z,16.70
2022-09-14T20:57:33.495Z,20.87
2022-09-14T20:59:42.009Z,17.60
2022-09-14T21:01:45.570Z,21.63
2022-09-14T21:03:48.852Z,19.30
2022-09-14T21:05:53.729Z,19.40
2022-09-14T21:07:56.944Z,18.10
2022-09-14T21:10:00.937Z,20.83
2022-09-14T21:12:04.032Z,20.00
2022-09-14T21:14:06.981Z,19.33
2022-09-14T21:16:11.403Z,20.23
2022-09-14T21:18:16.602Z,19.97
2022-09-14T21:20:23.136Z,20.30
2022-09-14T21:22:25.707Z,23.80
2022-09-14T21:24:28.349Z,20.10
2022-09-14T21:26:34.025Z,20.10
2022-09-14T21:28:37.251Z,24.40
2022-09-14T21:30:39.904Z,19.67
2022-09-14T21:32:47.249Z,22.77
2022-09-14T21:34:50.272Z,24.87
2022-09-14T21:36:53.971Z,21.50
2022-09-14T21:38:57.502Z,23.53
2022-09-14T21:41:00.099Z,23.73
2022-09-14T21:43:03.966Z,21.50
2022-09-14T21:45:10.407Z,21.67
2022-09-14T21:47:12.982Z,22.53
2022-09-14T21:49:16.728Z,19.77
2022-09-14T21:51:20.383Z,21.80
2022-09-14T21:53:23.390Z,22.33
2022-09-14T21:55:26.065Z,23.70
2022-09-14T21:57:28.706Z,24.20
2022-09-14T21:59:32.542Z,22.33
2022-09-14T22:01:35.628Z,22.10
2022-09-14T22:03:39.089Z,22.60
2022-09-14T22:05:41.647Z,21.60
2022-09-14T22:07:44.255Z,20.40
2022-09-14T22:09:47.257Z,23.67
2022-09-14T22:11:49.975Z,22.07
2022-09-14T22:13:54.761Z,20.27
2022-09-14T22:15:58.673Z,19.83
2022-09-14T22:18:02.460Z,20.87
2022-09-14T22:20:05.594Z,19.60
2022-09-14T22:22:08.189Z,19.70
2022-09-14T22:24:12.604Z,18.67
2022-09-14T22:26:15.600Z,21.83
2022-09-14T22:28:18.332Z,19.73
2022-09-14T22:30:20.883Z,21.10
2022-09-14T22:32:24.860Z,19.67
2022-09-14T22:34:28.420Z,18.23
2022-09-14T22:36:30.993Z,21.27
2022-09-14T22:38:34.633Z,19.67
2022-09-14T22:40:37.215Z,21.70
2022-09-14T22:42:40.512Z,19.13
2022-09-14T22:44:43.080Z,20.93
2022-09-14T22:46:46.054Z,19.10
2022-09-14T22:48:50.554Z,21.50
2022-09-14T22:50:54.784Z,19.27
2022-09-14T22:52:57.551Z,17.87
2022-09-14T22:55:00.129Z,19.27
2022-09-14T22:57:02.726Z,22.03
2022-09-14T22:59:05.772Z,18.50
2022-09-14T23:01:08.773Z,18.03
2022-09-14T23:03:11.778Z,18.00
2022-09-14T23:05:15.692Z,17.17
2022-09-14T23:07:20.039Z,17.03
2022-09-14T23:09:23.110Z,18.70
2022-09-14T23:11:25.946Z,18.23
2022-09-14T23:13:28.905Z,18.73
2022-09-14T23:15:31.686Z,19.60
2022-09-14T23:17:34.496Z,18.20
2022-09-14T23:19:37.054Z,16.53
2022-09-14T23:21:41.297Z,16.90
2022-09-14T23:23:43.831Z,15.63
2022-09-14T23:25:46.714Z,16.53
2022-09-14T23:27:49.485Z,17.23
2022-09-14T23:29:53.443Z,16.87
2022-09-14T23:31:56.054Z,16.20
2022-09-14T23:33:59.966Z,16.97
2022-09-14T23:36:02.700Z,17.10
2022-09-14T23:38:07.013Z,15.67
2022-09-14T23:40:10.152Z,19.43
2022-09-14T23:42:13.820Z,15.97
2022-09-14T23:44:16.439Z,18.73
2022-09-14T23:46:19.623Z,15.07
2022-09-14T23:48:22.862Z,15.73
2022-09-14T23:50:25.737Z,15.57
2022-09-14T23:52:28.266Z,15.60
2022-09-14T23:54:32.997Z,17.40
2022-09-14T23:56:36.051Z,14.60
2022-09-14T23:58:39.046Z,15.07
